createdAt,value
2019-05-05T00:00:15.636Z,99.90
2019-05-05T00:03:00.004Z,99.90
2019-05-05T00:05:30.952Z,99.90
2019-05-05T00:07:58.746Z,99.90
2019-05-05T00:10:34.816Z,99.90
2019-05-05T00:13:14.926Z,99.90
2019-05-05T00:16:01.051Z,99.90
2019-05-05T00:18:30.383Z,99.90
2019-05-05T00:20:58.151Z,99.90
2019-05-05T00:23:25.995Z,99.90
2019-05-05T00:25:55.273Z,99.90
2019-05-05T00:28:24.842Z,99.90
2019-05-05T00:30:52.867Z,99.90
2019-05-05T00:33:20.642Z,99.90
2019-05-05T00:35:48.457Z,99.90
2019-05-05T00:38:16.237Z,99.90
2019-05-05T00:40:44.381Z,99.90
2019-05-05T00:43:14.591Z,99.90
2019-05-05T00:45:45.087Z,99.90
2019-05-05T00:48:21.748Z,99.90
2019-05-05T00:50:51.801Z,99.90
2019-05-05T00:53:19.309Z,99.90
2019-05-05T00:55:47.149Z,99.90
2019-05-05T00:58:14.946Z,99.90
2019-05-05T01:00:54.864Z,99.90
2019-05-05T01:03:24.476Z,99.90
2019-05-05T01:06:10.322Z,99.90
2019-05-05T01:08:38.114Z,99.90
2019-05-05T01:11:05.903Z,99.90
2019-05-05T01:13:35.184Z,99.90
2019-05-05T01:16:04.824Z,99.90
2019-05-05T01:18:34.973Z,99.90
2019-05-05T01:21:04.555Z,99.90
2019-05-05T01:23:32.440Z,99.90
2019-05-05T01:26:00.279Z,99.90
2019-05-05T01:28:28.060Z,99.90
2019-05-05T01:30:59.846Z,99.90
2019-05-05T01:33:56.424Z,99.90
2019-05-05T01:36:24.320Z,99.90
2019-05-05T01:39:09.292Z,99.90
2019-05-05T01:41:40.748Z,99.90
2019-05-05T01:44:08.559Z,99.90
2019-05-05T01:46:36.340Z,99.90
2019-05-05T01:49:05.337Z,99.90
2019-05-05T01:51:35.357Z,99.90
2019-05-05T01:54:05.030Z,99.90
2019-05-05T01:56:35.199Z,99.90
2019-05-05T01:59:05.125Z,99.90
2019-05-05T02:01:35.069Z,99.90
2019-05-05T02:04:02.971Z,99.90
2019-05-05T02:06:30.805Z,99.90
2019-05-05T02:08:58.599Z,99.90
2019-05-05T02:11:26.394Z,99.90
2019-05-05T02:13:54.675Z,99.90
2019-05-05T02:16:22.617Z,99.90
2019-05-05T02:18:50.439Z,99.90
2019-05-05T02:21:18.219Z,99.90
2019-05-05T02:23:46.019Z,99.90
2019-05-05T02:26:15.324Z,99.90
2019-05-05T02:28:58.922Z,99.90
2019-05-05T02:31:36.048Z,99.90
2019-05-05T02:34:05.472Z,99.90
2019-05-05T02:36:35.445Z,99.90
2019-05-05T02:39:05.458Z,99.90
2019-05-05T02:41:34.832Z,99.90
2019-05-05T02:44:05.069Z,99.90
2019-05-05T02:46:44.560Z,99.90
2019-05-05T02:49:14.899Z,99.90
2019-05-05T02:51:44.747Z,99.90
2019-05-05T02:54:13.713Z,99.90
2019-05-05T02:56:47.312Z,99.90
2019-05-05T02:59:39.402Z,99.90
2019-05-05T03:02:19.682Z,99.90
2019-05-05T03:04:47.721Z,99.90
2019-05-05T03:07:17.900Z,99.90
2019-05-05T03:09:48.740Z,99.90
2019-05-05T03:12:19.732Z,99.90
2019-05-05T03:14:53.683Z,99.90
2019-05-05T03:17:23.450Z,99.90
2019-05-05T03:19:53.566Z,99.90
2019-05-05T03:22:23.681Z,99.90
2019-05-05T03:24:54.117Z,99.90
2019-05-05T03:27:23.722Z,99.90
2019-05-05T03:29:53.525Z,99.90
2019-05-05T03:32:24.883Z,99.90
2019-05-05T03:34:53.562Z,99.90
2019-05-05T03:37:21.556Z,99.90
2019-05-05T03:39:56.235Z,99.90
2019-05-05T03:42:39.948Z,99.90
2019-05-05T03:45:21.078Z,99.90
2019-05-05T03:47:49.772Z,99.90
2019-05-05T03:50:17.791Z,99.90
2019-05-05T03:52:45.894Z,99.90
2019-05-05T03:55:13.926Z,99.90
2019-05-05T03:57:44.507Z,99.90
2019-05-05T04:00:14.761Z,99.90
2019-05-05T04:03:07.981Z,99.90
2019-05-05T04:05:54.315Z,99.90
2019-05-05T04:08:23.515Z,99.90
2019-05-05T04:10:51.681Z,99.90
2019-05-05T04:13:19.601Z,99.90
2019-05-05T04:16:07.374Z,99.90
2019-05-05T04:18:39.805Z,99.90
2019-05-05T04:21:07.598Z,99.90
2019-05-05T04:23:35.405Z,99.90
2019-05-05T04:26:03.832Z,99.90
2019-05-05T04:28:31.661Z,99.90
2019-05-05T04:30:59.445Z,99.90
2019-05-05T04:33:27.263Z,99.90
2019-05-05T04:35:55.042Z,99.90
2019-05-05T04:38:24.323Z,99.90
2019-05-05T04:40:54.185Z,99.90
2019-05-05T04:43:21.942Z,99.90
2019-05-05T04:45:49.734Z,99.90
2019-05-05T04:48:24.262Z,99.90
2019-05-05T04:51:17.596Z,99.90
2019-05-05T04:54:03.902Z,99.90
2019-05-05T04:56:34.114Z,99.90
2019-05-05T04:59:03.840Z,99.90
2019-05-05T05:01:33.087Z,99.90
2019-05-05T05:04:08.466Z,99.90
2019-05-05T05:06:43.640Z,99.90
2019-05-05T05:09:11.460Z,99.90
2019-05-05T05:11:39.277Z,99.90
2019-05-05T05:14:07.108Z,99.90
2019-05-05T05:16:35.689Z,99.90
2019-05-05T05:19:04.324Z,99.90
2019-05-05T05:21:34.126Z,99.90
2019-05-05T05:24:03.862Z,99.90
2019-05-05T05:26:33.596Z,99.90
2019-05-05T05:29:01.495Z,99.90
2019-05-05T05:31:29.284Z,99.90
2019-05-05T05:33:57.094Z,99.90
2019-05-05T05:36:24.993Z,99.90
2019-05-05T05:38:55.218Z,99.90
2019-05-05T05:41:43.564Z,99.90
2019-05-05T05:44:30.068Z,99.90
2019-05-05T05:47:17.461Z,99.90
2019-05-05T05:50:04.855Z,99.90
2019-05-05T05:52:34.367Z,99.90
2019-05-05T05:55:04.096Z,99.90
2019-05-05T05:57:32.009Z,99.90
2019-05-05T05:59:59.843Z,99.90
2019-05-05T06:02:27.641Z,99.90
2019-05-05T06:04:55.441Z,99.90
2019-05-05T06:07:24.493Z,99.90
2019-05-05T06:09:54.137Z,99.90
2019-05-05T06:12:22.103Z,99.90
2019-05-05T06:14:50.128Z,99.90
2019-05-05T06:17:18.031Z,99.90
2019-05-05T06:19:45.819Z,99.90
2019-05-05T06:22:15.223Z,99.90
2019-05-05T06:24:43.982Z,99.90
2019-05-05T06:27:14.101Z,99.90
2019-05-05T06:29:43.633Z,99.90
2019-05-05T06:32:11.394Z,99.90
2019-05-05T06:34:41.218Z,99.90
2019-05-05T06:37:09.018Z,99.90
2019-05-05T06:39:36.844Z,99.90
2019-05-05T06:42:23.702Z,99.90
2019-05-05T06:44:55.809Z,99.90
2019-05-05T06:47:29.654Z,99.90
2019-05-05T06:49:57.490Z,98.50
2019-05-05T06:52:25.305Z,98.10
2019-05-05T06:54:54.266Z,96.10
2019-05-05T06:57:24.027Z,94.60
2019-05-05T06:59:54.249Z,92.90
2019-05-05T07:02:23.677Z,83.80
2019-05-05T07:04:51.746Z,80.50
2019-05-05T07:07:19.551Z,81.20
2019-05-05T07:09:48.810Z,78.10
2019-05-05T07:12:16.633Z,72.40
2019-05-05T07:14:44.686Z,75.60
2019-05-05T07:17:14.091Z,72.30
2019-05-05T07:19:42.108Z,68.50
2019-05-05T07:22:09.973Z,62.10
2019-05-05T07:24:37.875Z,61.10
2019-05-05T07:27:05.802Z,61.30
2019-05-05T07:29:34.288Z,61.80
2019-05-05T07:32:03.987Z,61.00
2019-05-05T07:34:50.049Z,61.50
2019-05-05T07:37:17.859Z,65.30
2019-05-05T07:39:45.657Z,65.60
2019-05-05T07:42:13.773Z,63.20
2019-05-05T07:44:41.620Z,61.50
2019-05-05T07:47:09.487Z,59.50
2019-05-05T07:49:37.299Z,56.50
2019-05-05T07:52:05.154Z,55.20
2019-05-05T07:54:34.195Z,55.90
2019-05-05T07:57:04.060Z,58.40
2019-05-05T07:59:33.895Z,58.60
2019-05-05T08:02:03.874Z,59.20
2019-05-05T08:04:31.347Z,64.30
2019-05-05T08:06:59.157Z,66.90
2019-05-05T08:09:26.966Z,65.00
2019-05-05T08:11:54.802Z,62.10
2019-05-05T08:14:24.521Z,59.90
2019-05-05T08:17:23.664Z,56.80
2019-05-05T08:19:55.262Z,55.00
2019-05-05T08:22:23.616Z,57.80
2019-05-05T08:25:15.656Z,65.40
2019-05-05T08:27:57.528Z,68.60
2019-05-05T08:30:50.777Z,66.90
2019-05-05T08:33:18.626Z,68.00
2019-05-05T08:35:46.462Z,72.70
2019-05-05T08:38:17.241Z,71.00
2019-05-05T08:40:45.076Z,68.40
2019-05-05T08:43:13.844Z,62.30
2019-05-05T08:45:44.205Z,56.80
2019-05-05T08:48:11.653Z,53.00
2019-05-05T08:50:39.617Z,51.60
2019-05-05T08:53:08.574Z,53.70
2019-05-05T08:55:36.686Z,55.80
2019-05-05T08:58:04.736Z,59.90
2019-05-05T09:00:33.828Z,63.10
2019-05-05T09:03:03.862Z,65.80
2019-05-05T09:05:31.586Z,69.90
2019-05-05T09:07:59.507Z,69.80
2019-05-05T09:10:27.336Z,72.40
2019-05-05T09:12:55.153Z,74.20
2019-05-05T09:15:24.279Z,74.10
2019-05-05T09:17:54.409Z,75.70
2019-05-05T09:20:24.063Z,75.80
2019-05-05T09:22:53.573Z,70.30
2019-05-05T09:25:47.020Z,63.50
2019-05-05T09:28:21.102Z,55.90
2019-05-05T09:30:49.654Z,49.20
2019-05-05T09:33:18.400Z,50.00
2019-05-05T09:35:46.727Z,53.80
2019-05-05T09:38:14.850Z,58.50
2019-05-05T09:40:44.571Z,59.00
2019-05-05T09:43:14.533Z,56.40
2019-05-05T09:45:44.165Z,50.00
2019-05-05T09:50:43.674Z,39.10
2019-05-05T09:53:11.783Z,38.10
2019-05-05T09:55:39.579Z,38.50
2019-05-05T09:58:07.387Z,42.50
2019-05-05T10:00:39.778Z,49.20
2019-05-05T10:03:07.741Z,52.60
2019-05-05T10:05:35.545Z,55.60
2019-05-05T10:08:03.668Z,57.40
2019-05-05T10:10:33.572Z,60.40
2019-05-05T10:13:01.637Z,63.00
2019-05-05T10:15:29.417Z,63.10
2019-05-05T10:17:57.267Z,59.30
2019-05-05T10:20:25.061Z,52.40
2019-05-05T10:22:54.249Z,48.00
2019-05-05T10:25:54.058Z,42.20
2019-05-05T10:28:23.882Z,43.80
2019-05-05T10:30:53.756Z,46.40
2019-05-05T10:33:21.636Z,49.30
2019-05-05T10:35:49.488Z,50.50
2019-05-05T10:38:17.286Z,51.80
2019-05-05T10:40:48.176Z,54.30
2019-05-05T10:43:15.026Z,55.50
2019-05-05T10:45:44.073Z,57.70
2019-05-05T10:48:13.772Z,59.30
2019-05-05T10:50:41.743Z,61.50
2019-05-05T10:53:09.574Z,62.60
2019-05-05T10:55:37.497Z,61.80
2019-05-05T10:58:05.338Z,61.30
2019-05-05T11:00:50.709Z,62.30
2019-05-05T11:03:18.933Z,61.00
2019-05-05T11:05:48.702Z,60.10
2019-05-05T11:08:16.720Z,59.50
2019-05-05T11:10:45.147Z,57.80
2019-05-05T11:13:13.117Z,54.30
2019-05-05T11:15:40.985Z,51.20
2019-05-05T11:18:08.797Z,51.00
2019-05-05T11:20:36.714Z,50.10
2019-05-05T11:23:04.968Z,51.70
2019-05-05T11:25:33.707Z,51.80
2019-05-05T11:28:03.611Z,52.30
2019-05-05T11:30:35.010Z,51.50
2019-05-05T11:33:21.329Z,51.80
2019-05-05T11:36:17.018Z,50.10
2019-05-05T11:38:44.850Z,48.00
2019-05-05T11:41:14.377Z,48.60
2019-05-05T11:43:42.420Z,49.30
2019-05-05T11:46:10.344Z,49.30
2019-05-05T11:48:38.159Z,48.80
2019-05-05T11:51:06.007Z,47.30
2019-05-05T11:53:34.052Z,45.80
2019-05-05T11:56:04.025Z,48.30
2019-05-05T11:58:33.921Z,50.80
2019-05-05T12:01:03.536Z,52.10
2019-05-05T12:03:31.321Z,52.60
2019-05-05T12:05:59.784Z,54.60
2019-05-05T12:08:27.611Z,55.30
2019-05-05T12:10:59.642Z,55.30
2019-05-05T12:13:27.562Z,55.20
2019-05-05T12:16:06.895Z,55.60
2019-05-05T12:18:34.880Z,53.50
2019-05-05T12:21:04.872Z,51.60
2019-05-05T12:23:33.937Z,47.70
2019-05-05T12:26:24.224Z,46.70
2019-05-05T12:28:57.250Z,46.40
2019-05-05T12:31:26.898Z,47.30
2019-05-05T12:33:55.633Z,48.90
2019-05-05T12:36:23.840Z,50.50
2019-05-05T12:38:54.602Z,51.60
2019-05-05T12:41:23.867Z,53.30
2019-05-05T12:43:54.585Z,53.10
2019-05-05T12:46:44.330Z,53.00
2019-05-05T12:49:13.870Z,52.60
2019-05-05T12:51:43.552Z,48.90
2019-05-05T12:54:11.655Z,44.60
2019-05-05T12:56:39.502Z,41.10
2019-05-05T12:59:14.191Z,38.40
2019-05-05T13:01:44.152Z,39.10
2019-05-05T13:04:14.014Z,42.00
2019-05-05T13:06:41.864Z,41.10
2019-05-05T13:09:09.675Z,39.70
2019-05-05T13:11:37.491Z,37.70
2019-05-05T13:14:05.374Z,37.00
2019-05-05T13:16:33.177Z,37.60
2019-05-05T13:19:04.392Z,36.80
2019-05-05T13:21:58.077Z,35.50
2019-05-05T13:24:43.616Z,34.40
2019-05-05T13:27:19.780Z,33.00
2019-05-05T13:29:47.800Z,31.80
2019-05-05T13:32:15.608Z,31.70
2019-05-05T13:34:43.856Z,31.70
2019-05-05T13:37:13.973Z,32.50
2019-05-05T13:39:41.565Z,34.10
2019-05-05T13:42:09.396Z,34.90
2019-05-05T13:44:54.714Z,38.00
2019-05-05T13:47:23.866Z,39.60
2019-05-05T13:49:54.282Z,40.40
2019-05-05T13:52:24.190Z,41.30
2019-05-05T13:54:51.863Z,42.20
2019-05-05T13:57:19.639Z,42.20
2019-05-05T13:59:47.517Z,43.20
2019-05-05T14:02:15.512Z,44.20
2019-05-05T14:04:43.925Z,45.00
2019-05-05T14:07:11.848Z,45.00
2019-05-05T14:09:39.704Z,45.90
2019-05-05T14:12:07.590Z,47.00
2019-05-05T14:14:35.421Z,47.60
2019-05-05T14:17:04.127Z,47.60
2019-05-05T14:19:34.079Z,48.10
2019-05-05T14:22:04.210Z,48.30
2019-05-05T14:24:44.438Z,48.80
2019-05-05T14:27:14.354Z,49.40
2019-05-05T14:29:59.593Z,50.20
2019-05-05T14:32:30.874Z,49.90
2019-05-05T14:35:14.870Z,50.10
2019-05-05T14:37:48.838Z,49.20
2019-05-05T14:40:16.876Z,49.40
2019-05-05T14:42:44.685Z,49.70
2019-05-05T14:45:15.340Z,49.80
2019-05-05T14:47:44.174Z,50.60
2019-05-05T14:50:13.257Z,50.50
2019-05-05T14:52:41.102Z,50.40
2019-05-05T14:55:09.304Z,50.20
2019-05-05T14:57:37.132Z,50.80
2019-05-05T15:00:06.228Z,50.00
2019-05-05T15:02:34.788Z,50.00
2019-05-05T15:05:20.990Z,49.70
2019-05-05T15:08:00.519Z,49.30
2019-05-05T15:10:46.913Z,48.70
2019-05-05T15:13:14.867Z,48.80
2019-05-05T15:15:42.799Z,48.30
2019-05-05T15:18:10.657Z,49.10
2019-05-05T15:20:38.479Z,50.00
2019-05-05T15:23:06.339Z,50.30
2019-05-05T15:25:34.262Z,51.10
2019-05-05T15:28:02.227Z,50.60
2019-05-05T15:30:30.075Z,50.50
2019-05-05T15:32:57.933Z,51.00
2019-05-05T15:35:25.828Z,51.30
2019-05-05T15:37:54.266Z,50.90
2019-05-05T15:40:22.298Z,50.60
2019-05-05T15:42:50.228Z,51.10
2019-05-05T15:45:18.135Z,51.80
2019-05-05T15:47:46.001Z,51.80
2019-05-05T15:50:14.473Z,52.00
2019-05-05T15:52:44.077Z,52.10
2019-05-05T15:55:14.098Z,52.20
2019-05-05T15:57:44.080Z,52.30
2019-05-05T16:00:14.102Z,52.40
2019-05-05T16:02:43.988Z,53.00
2019-05-05T16:05:13.741Z,53.10
2019-05-05T16:07:43.816Z,52.80
2019-05-05T16:10:13.769Z,52.40
2019-05-05T16:12:41.816Z,52.30
2019-05-05T16:15:28.522Z,51.80
2019-05-05T16:18:28.116Z,52.10
2019-05-05T16:21:21.430Z,53.00
2019-05-05T16:23:54.331Z,53.50
2019-05-05T16:26:24.415Z,53.60
2019-05-05T16:28:55.027Z,54.30
2019-05-05T16:31:23.504Z,55.40
2019-05-05T16:33:51.567Z,55.50
2019-05-05T16:36:19.448Z,55.90
2019-05-05T16:38:47.292Z,56.70
2019-05-05T16:41:15.462Z,56.90
2019-05-05T16:43:44.250Z,57.30
2019-05-05T16:46:16.698Z,58.10
2019-05-05T16:48:43.798Z,57.40
2019-05-05T16:51:14.185Z,57.60
2019-05-05T16:53:42.163Z,57.70
2019-05-05T16:56:14.022Z,57.70
2019-05-05T16:58:41.921Z,58.60
2019-05-05T17:01:14.380Z,59.10
2019-05-05T17:03:45.375Z,59.70
2019-05-05T17:06:14.027Z,60.90
2019-05-05T17:08:44.203Z,61.30
2019-05-05T17:11:11.787Z,61.70
2019-05-05T17:14:17.387Z,61.70
2019-05-05T17:16:57.079Z,62.30
2019-05-05T17:19:56.434Z,62.70
2019-05-05T17:22:37.731Z,63.60
2019-05-05T17:25:08.040Z,63.60
2019-05-05T17:27:47.666Z,63.50
2019-05-05T17:30:06.285Z,64.10
2019-05-05T17:32:34.465Z,64.60
2019-05-05T17:35:03.865Z,65.30
2019-05-05T17:37:33.549Z,65.00
2019-05-05T17:40:09.065Z,65.30
2019-05-05T17:43:01.627Z,65.30
2019-05-05T17:45:47.474Z,65.60
2019-05-05T17:48:20.919Z,66.00
2019-05-05T17:51:06.616Z,66.40
2019-05-05T17:54:09.188Z,66.60
2019-05-05T17:56:37.090Z,66.50
2019-05-05T17:59:05.121Z,67.20
2019-05-05T18:01:33.611Z,67.50
2019-05-05T18:04:01.568Z,67.60
2019-05-05T18:06:36.510Z,68.10
2019-05-05T18:09:11.238Z,68.60
2019-05-05T18:11:44.874Z,68.90
2019-05-05T18:14:18.322Z,69.50
2019-05-05T18:16:46.153Z,69.60
2019-05-05T18:19:14.094Z,70.10
2019-05-05T18:21:43.816Z,70.30
2019-05-05T18:24:13.656Z,70.70
2019-05-05T18:26:43.439Z,70.60
2019-05-05T18:29:11.216Z,71.00
2019-05-05T18:31:39.131Z,71.30
2019-05-05T18:34:06.928Z,71.60
2019-05-05T18:36:34.820Z,71.60
2019-05-05T18:39:04.993Z,71.30
2019-05-05T18:41:38.388Z,71.20
2019-05-05T18:44:17.497Z,71.40
2019-05-05T18:46:47.246Z,71.40
2019-05-05T18:49:17.450Z,71.80
2019-05-05T18:51:45.275Z,72.10
2019-05-05T18:54:13.117Z,72.30
2019-05-05T18:56:40.929Z,72.50
2019-05-05T18:59:08.756Z,73.10
2019-05-05T19:01:45.182Z,73.30
2019-05-05T19:04:41.767Z,73.30
2019-05-05T19:07:23.850Z,73.30
2019-05-05T19:09:54.337Z,73.90
2019-05-05T19:12:21.515Z,74.20
2019-05-05T19:14:49.775Z,74.50
2019-05-05T19:17:17.623Z,74.40
2019-05-05T19:19:49.417Z,74.60
2019-05-05T19:22:17.225Z,74.70
2019-05-05T19:24:45.092Z,75.00
2019-05-05T19:27:14.195Z,75.10
2019-05-05T19:29:45.978Z,75.00
2019-05-05T19:32:11.947Z,75.20
2019-05-05T19:34:43.966Z,75.50
2019-05-05T19:37:13.889Z,77.00
2019-05-05T19:39:41.676Z,77.50
2019-05-05T19:42:09.503Z,78.40
2019-05-05T19:44:37.340Z,79.40
2019-05-05T19:47:17.302Z,80.00
2019-05-05T19:49:51.511Z,81.20
2019-05-05T19:52:19.337Z,82.00
2019-05-05T19:54:47.643Z,83.00
2019-05-05T19:57:15.566Z,84.00
2019-05-05T19:59:44.745Z,84.50
2019-05-05T20:02:12.800Z,85.60
2019-05-05T20:04:40.644Z,86.80
2019-05-05T20:07:08.814Z,88.20
2019-05-05T20:09:36.689Z,88.90
2019-05-05T20:12:04.531Z,90.10
2019-05-05T20:14:34.274Z,90.70
2019-05-05T20:17:07.793Z,91.50
2019-05-05T20:19:43.746Z,92.60
2019-05-05T20:22:11.408Z,93.60
2019-05-05T20:24:39.266Z,94.70
2019-05-05T20:27:07.099Z,95.80
2019-05-05T20:29:37.382Z,96.80
2019-05-05T20:32:04.973Z,97.80
2019-05-05T20:34:40.951Z,98.60
2019-05-05T20:37:14.116Z,99.00
2019-05-05T20:39:43.971Z,99.90
2019-05-05T20:42:12.050Z,99.90
2019-05-05T20:44:40.684Z,99.90
2019-05-05T20:47:08.492Z,99.90
2019-05-05T20:49:36.306Z,99.90
2019-05-05T20:52:04.089Z,99.90
2019-05-05T20:54:31.911Z,99.90
2019-05-05T20:56:59.719Z,99.90
2019-05-05T20:59:30.856Z,99.90
2019-05-05T21:01:57.286Z,99.90
2019-05-05T21:04:25.147Z,99.90
2019-05-05T21:06:52.989Z,99.90
2019-05-05T21:09:20.797Z,99.90
2019-05-05T21:11:48.604Z,99.90
2019-05-05T21:14:16.463Z,99.90
2019-05-05T21:16:44.265Z,99.90
2019-05-05T21:19:14.056Z,99.90
2019-05-05T21:21:44.692Z,99.90
2019-05-05T21:24:12.583Z,99.90
2019-05-05T21:27:00.785Z,99.90
2019-05-05T21:29:39.494Z,99.90
2019-05-05T21:31:58.318Z,99.90
2019-05-05T21:34:26.319Z,99.90
2019-05-05T21:36:54.273Z,99.90
2019-05-05T21:39:22.163Z,99.90
2019-05-05T21:41:50.270Z,99.90
2019-05-05T21:44:18.106Z,99.90
2019-05-05T21:46:45.906Z,99.90
2019-05-05T21:49:13.855Z,99.90
2019-05-05T21:52:08.096Z,99.90
2019-05-05T21:54:44.069Z,99.90
2019-05-05T21:57:40.318Z,99.90
2019-05-05T22:00:28.566Z,99.90
2019-05-05T22:02:56.683Z,99.90
2019-05-05T22:05:24.577Z,99.90
2019-05-05T22:07:53.911Z,99.90
2019-05-05T22:10:21.809Z,99.90
2019-05-05T22:12:49.661Z,99.90
2019-05-05T22:15:17.510Z,99.90
2019-05-05T22:17:45.290Z,99.90
2019-05-05T22:20:20.307Z,99.90
2019-05-05T22:22:48.770Z,99.90
2019-05-05T22:25:16.615Z,99.90
2019-05-05T22:27:44.452Z,99.90
2019-05-05T22:30:14.198Z,99.90
2019-05-05T22:32:43.969Z,99.90
2019-05-05T22:35:14.074Z,99.90
2019-05-05T22:37:43.814Z,99.90
2019-05-05T22:40:19.844Z,99.90
2019-05-05T22:42:47.770Z,99.90
2019-05-05T22:45:15.712Z,99.90
2019-05-05T22:47:43.547Z,99.90
2019-05-05T22:50:13.889Z,99.90
2019-05-05T22:52:41.900Z,99.90
2019-05-05T22:55:10.309Z,99.90
2019-05-05T22:57:38.204Z,99.90
2019-05-05T23:00:23.834Z,99.90
2019-05-05T23:02:44.451Z,99.90
2019-05-05T23:05:30.149Z,99.90
2019-05-05T23:07:58.011Z,99.90
2019-05-05T23:10:25.789Z,99.90
2019-05-05T23:12:54.430Z,99.90
2019-05-05T23:15:25.311Z,99.90
2019-05-05T23:17:57.897Z,99.90
2019-05-05T23:20:55.593Z,99.90
2019-05-05T23:23:43.005Z,99.90
2019-05-05T23:26:13.919Z,99.90
2019-05-05T23:28:44.260Z,99.90
2019-05-05T23:31:11.715Z,99.90
2019-05-05T23:33:39.656Z,99.90
2019-05-05T23:36:07.444Z,99.90
2019-05-05T23:38:35.251Z,99.90
2019-05-05T23:41:03.856Z,99.90
2019-05-05T23:43:31.886Z,99.90
2019-05-05T23:45:59.672Z,99.90
2019-05-05T23:48:28.211Z,99.90
2019-05-05T23:50:56.022Z,99.90
2019-05-05T23:53:24.897Z,99.90
2019-05-05T23:55:54.646Z,99.90
2019-05-05T23:58:23.993Z,99.90
